sensor_id;sensor_type;location;lat;lon;timestamp;P1;durP1;ratioP1;P2;durP2;ratioP2
51438;SDS011;38816;51.142;-0.974;2023-09-19T00:02:17;50.85;;;46.92;;
51438;SDS011;38816;51.142;-0.974;2023-09-19T00:04:43;49.67;;;45.22;;
51438;SDS011;38816;51.142;-0.974;2023-09-19T00:07:09;47.65;;;43.83;;
51438;SDS011;38816;51.142;-0.974;2023-09-19T00:09:35;47.55;;;43.83;;
51438;SDS011;38816;51.142;-0.974;2023-09-19T00:12:05;51.55;;;47.28;;
51438;SDS011;38816;51.142;-0.974;2023-09-19T00:14:31;53.95;;;48.90;;
51438;SDS011;38816;51.142;-0.974;2023-09-19T00:16:59;51.83;;;47.08;;
51438;SDS011;38816;51.142;-0.974;2023-09-19T00:19:25;54.55;;;49.90;;
51438;SDS011;38816;51.142;-0.974;2023-09-19T00:21:51;52.20;;;48.38;;
51438;SDS011;38816;51.142;-0.974;2023-09-19T00:24:18;55.13;;;50.22;;
51438;SDS011;38816;51.142;-0.974;2023-09-19T00:26:43;54.08;;;49.70;;
51438;SDS011;38816;51.142;-0.974;2023-09-19T00:29:08;51.95;;;47.70;;
51438;SDS011;38816;51.142;-0.974;2023-09-19T00:31:34;48.97;;;45.20;;
51438;SDS011;38816;51.142;-0.974;2023-09-19T00:34:02;53.88;;;49.30;;
51438;SDS011;38816;51.142;-0.974;2023-09-19T00:36:29;48.90;;;44.75;;
51438;SDS011;38816;51.142;-0.974;2023-09-19T00:38:54;49.42;;;45.42;;
51438;SDS011;38816;51.142;-0.974;2023-09-19T00:41:20;45.42;;;41.78;;
51438;SDS011;38816;51.142;-0.974;2023-09-19T00:43:46;49.88;;;45.88;;
51438;SDS011;38816;51.142;-0.974;2023-09-19T00:46:12;53.50;;;49.42;;
51438;SDS011;38816;51.142;-0.974;2023-09-19T00:48:42;51.13;;;47.13;;
51438;SDS011;38816;51.142;-0.974;2023-09-19T00:51:11;51.58;;;47.25;;
51438;SDS011;38816;51.142;-0.974;2023-09-19T00:53:38;53.38;;;49.05;;
51438;SDS011;38816;51.142;-0.974;2023-09-19T00:56:04;52.35;;;47.85;;
51438;SDS011;38816;51.142;-0.974;2023-09-19T00:58:31;46.17;;;42.47;;
51438;SDS011;38816;51.142;-0.974;2023-09-19T01:00:58;51.22;;;47.20;;
51438;SDS011;38816;51.142;-0.974;2023-09-19T01:03:24;51.08;;;46.30;;
51438;SDS011;38816;51.142;-0.974;2023-09-19T01:05:50;50.25;;;46.17;;
51438;SDS011;38816;51.142;-0.974;2023-09-19T01:08:16;48.33;;;44.55;;
51438;SDS011;38816;51.142;-0.974;2023-09-19T01:10:59;51.15;;;47.13;;
51438;SDS011;38816;51.142;-0.974;2023-09-19T01:16:46;50.90;;;46.90;;
51438;SDS011;38816;51.142;-0.974;2023-09-19T01:28:30;52.50;;;48.10;;
51438;SDS011;38816;51.142;-0.974;2023-09-19T01:31:01;56.08;;;51.35;;
51438;SDS011;38816;51.142;-0.974;2023-09-19T01:33:28;52.05;;;47.95;;
51438;SDS011;38816;51.142;-0.974;2023-09-19T01:36:16;59.63;;;54.50;;
51438;SDS011;38816;51.142;-0.974;2023-09-19T01:38:41;46.33;;;42.78;;
51438;SDS011;38816;51.142;-0.974;2023-09-19T01:41:09;51.20;;;47.05;;
51438;SDS011;38816;51.142;-0.974;2023-09-19T01:43:43;42.42;;;39.10;;
51438;SDS011;38816;51.142;-0.974;2023-09-19T01:46:15;43.05;;;39.58;;
51438;SDS011;38816;51.142;-0.974;2023-09-19T01:51:51;50.50;;;45.97;;
51438;SDS011;38816;51.142;-0.974;2023-09-19T01:54:33;53.08;;;48.53;;
51438;SDS011;38816;51.142;-0.974;2023-09-19T01:57:16;49.30;;;45.80;;
51438;SDS011;38816;51.142;-0.974;2023-09-19T01:59:50;51.00;;;46.97;;
51438;SDS011;38816;51.142;-0.974;2023-09-19T02:02:21;46.10;;;42.28;;
51438;SDS011;38816;51.142;-0.974;2023-09-19T02:04:48;43.05;;;39.72;;
51438;SDS011;38816;51.142;-0.974;2023-09-19T02:07:15;42.35;;;38.40;;
51438;SDS011;38816;51.142;-0.974;2023-09-19T02:09:41;42.03;;;37.90;;
51438;SDS011;38816;51.142;-0.974;2023-09-19T02:12:08;38.10;;;35.00;;
51438;SDS011;38816;51.142;-0.974;2023-09-19T02:14:34;41.40;;;37.85;;
51438;SDS011;38816;51.142;-0.974;2023-09-19T02:17:01;37.65;;;34.38;;
51438;SDS011;38816;51.142;-0.974;2023-09-19T02:19:30;40.20;;;36.88;;
51438;SDS011;38816;51.142;-0.974;2023-09-19T02:21:57;41.60;;;37.92;;
51438;SDS011;38816;51.142;-0.974;2023-09-19T02:24:22;41.67;;;37.85;;
51438;SDS011;38816;51.142;-0.974;2023-09-19T02:26:52;39.78;;;36.13;;
51438;SDS011;38816;51.142;-0.974;2023-09-19T02:29:17;35.95;;;32.25;;
51438;SDS011;38816;51.142;-0.974;2023-09-19T02:31:43;37.53;;;34.30;;
51438;SDS011;38816;51.142;-0.974;2023-09-19T02:34:08;33.40;;;30.50;;
51438;SDS011;38816;51.142;-0.974;2023-09-19T02:36:37;34.70;;;31.30;;
51438;SDS011;38816;51.142;-0.974;2023-09-19T02:39:02;32.67;;;29.85;;
51438;SDS011;38816;51.142;-0.974;2023-09-19T02:41:30;34.97;;;31.20;;
51438;SDS011;38816;51.142;-0.974;2023-09-19T02:43:56;31.40;;;28.52;;
51438;SDS011;38816;51.142;-0.974;2023-09-19T02:46:23;30.27;;;26.95;;
51438;SDS011;38816;51.142;-0.974;2023-09-19T02:48:48;33.35;;;30.60;;
51438;SDS011;38816;51.142;-0.974;2023-09-19T02:51:14;31.02;;;28.40;;
51438;SDS011;38816;51.142;-0.974;2023-09-19T02:53:39;30.92;;;28.35;;
51438;SDS011;38816;51.142;-0.974;2023-09-19T02:56:05;34.95;;;31.80;;
51438;SDS011;38816;51.142;-0.974;2023-09-19T02:58:30;32.20;;;29.42;;
51438;SDS011;38816;51.142;-0.974;2023-09-19T03:01:07;30.05;;;27.23;;
51438;SDS011;38816;51.142;-0.974;2023-09-19T03:03:33;32.03;;;29.70;;
51438;SDS011;38816;51.142;-0.974;2023-09-19T03:05:58;29.95;;;27.10;;
51438;SDS011;38816;51.142;-0.974;2023-09-19T03:08:24;26.15;;;23.35;;
51438;SDS011;38816;51.142;-0.974;2023-09-19T03:10:50;25.13;;;22.58;;
51438;SDS011;38816;51.142;-0.974;2023-09-19T03:13:15;23.50;;;20.92;;
51438;SDS011;38816;51.142;-0.974;2023-09-19T03:15:41;24.73;;;22.08;;
51438;SDS011;38816;51.142;-0.974;2023-09-19T03:18:09;26.00;;;23.75;;
51438;SDS011;38816;51.142;-0.974;2023-09-19T03:20:38;25.98;;;23.80;;
51438;SDS011;38816;51.142;-0.974;2023-09-19T03:23:03;26.25;;;23.80;;
51438;SDS011;38816;51.142;-0.974;2023-09-19T03:25:30;25.90;;;23.13;;
51438;SDS011;38816;51.142;-0.974;2023-09-19T03:27:56;27.77;;;23.85;;
51438;SDS011;38816;51.142;-0.974;2023-09-19T03:30:23;27.95;;;24.80;;
51438;SDS011;38816;51.142;-0.974;2023-09-19T03:32:48;29.02;;;25.00;;
51438;SDS011;38816;51.142;-0.974;2023-09-19T03:35:15;25.17;;;23.02;;
51438;SDS011;38816;51.142;-0.974;2023-09-19T03:37:42;22.27;;;19.63;;
51438;SDS011;38816;51.142;-0.974;2023-09-19T03:40:08;24.60;;;19.38;;
51438;SDS011;38816;51.142;-0.974;2023-09-19T03:42:37;24.67;;;22.65;;
51438;SDS011;38816;51.142;-0.974;2023-09-19T03:45:04;25.20;;;21.65;;
51438;SDS011;38816;51.142;-0.974;2023-09-19T03:47:31;23.85;;;21.42;;
51438;SDS011;38816;51.142;-0.974;2023-09-19T03:49:56;25.25;;;23.25;;
51438;SDS011;38816;51.142;-0.974;2023-09-19T03:52:22;27.38;;;20.42;;
51438;SDS011;38816;51.142;-0.974;2023-09-19T03:54:47;22.17;;;19.75;;
51438;SDS011;38816;51.142;-0.974;2023-09-19T03:57:12;24.17;;;20.50;;
51438;SDS011;38816;51.142;-0.974;2023-09-19T03:59:40;24.38;;;22.13;;
51438;SDS011;38816;51.142;-0.974;2023-09-19T04:02:08;29.58;;;24.13;;
51438;SDS011;38816;51.142;-0.974;2023-09-19T04:04:37;22.58;;;20.40;;
51438;SDS011;38816;51.142;-0.974;2023-09-19T04:07:02;21.50;;;18.98;;
51438;SDS011;38816;51.142;-0.974;2023-09-19T04:09:28;25.67;;;20.42;;
51438;SDS011;38816;51.142;-0.974;2023-09-19T04:11:53;25.95;;;23.33;;
51438;SDS011;38816;51.142;-0.974;2023-09-19T04:14:19;22.02;;;19.92;;
51438;SDS011;38816;51.142;-0.974;2023-09-19T04:16:44;22.27;;;20.10;;
51438;SDS011;38816;51.142;-0.974;2023-09-19T04:19:10;21.42;;;18.63;;
51438;SDS011;38816;51.142;-0.974;2023-09-19T04:21:35;23.90;;;20.05;;
51438;SDS011;38816;51.142;-0.974;2023-09-19T04:24:00;23.00;;;20.70;;
51438;SDS011;38816;51.142;-0.974;2023-09-19T04:26:26;28.02;;;22.13;;
51438;SDS011;38816;51.142;-0.974;2023-09-19T04:28:51;23.38;;;19.23;;
51438;SDS011;38816;51.142;-0.974;2023-09-19T04:31:17;26.08;;;19.00;;
51438;SDS011;38816;51.142;-0.974;2023-09-19T04:33:43;26.48;;;24.05;;
51438;SDS011;38816;51.142;-0.974;2023-09-19T04:36:09;21.75;;;16.55;;
51438;SDS011;38816;51.142;-0.974;2023-09-19T04:38:35;23.80;;;21.40;;
51438;SDS011;38816;51.142;-0.974;2023-09-19T04:41:00;24.88;;;18.58;;
51438;SDS011;38816;51.142;-0.974;2023-09-19T04:43:26;19.55;;;17.55;;
51438;SDS011;38816;51.142;-0.974;2023-09-19T04:45:51;19.90;;;17.30;;
51438;SDS011;38816;51.142;-0.974;2023-09-19T04:48:21;24.65;;;18.35;;
51438;SDS011;38816;51.142;-0.974;2023-09-19T04:50:49;22.77;;;20.90;;
51438;SDS011;38816;51.142;-0.974;2023-09-19T04:53:14;21.00;;;18.20;;
51438;SDS011;38816;51.142;-0.974;2023-09-19T04:55:39;19.98;;;18.20;;
51438;SDS011;38816;51.142;-0.974;2023-09-19T04:58:05;22.77;;;17.98;;
51438;SDS011;38816;51.142;-0.974;2023-09-19T05:00:30;21.17;;;19.30;;
51438;SDS011;38816;51.142;-0.974;2023-09-19T05:03:00;19.73;;;17.88;;
51438;SDS011;38816;51.142;-0.974;2023-09-19T05:05:25;19.60;;;17.88;;
51438;SDS011;38816;51.142;-0.974;2023-09-19T05:07:51;19.65;;;15.55;;
51438;SDS011;38816;51.142;-0.974;2023-09-19T05:10:19;19.08;;;17.02;;
51438;SDS011;38816;51.142;-0.974;2023-09-19T05:12:45;26.75;;;15.65;;
51438;SDS011;38816;51.142;-0.974;2023-09-19T05:15:12;20.23;;;18.33;;
51438;SDS011;38816;51.142;-0.974;2023-09-19T05:17:39;20.83;;;18.77;;
51438;SDS011;38816;51.142;-0.974;2023-09-19T05:20:05;20.42;;;18.67;;
51438;SDS011;38816;51.142;-0.974;2023-09-19T05:22:41;16.58;;;15.23;;
51438;SDS011;38816;51.142;-0.974;2023-09-19T05:25:08;16.60;;;15.25;;
51438;SDS011;38816;51.142;-0.974;2023-09-19T05:27:34;17.83;;;16.17;;
51438;SDS011;38816;51.142;-0.974;2023-09-19T05:29:59;22.10;;;20.30;;
51438;SDS011;38816;51.142;-0.974;2023-09-19T05:32:25;19.65;;;18.00;;
51438;SDS011;38816;51.142;-0.974;2023-09-19T05:34:50;19.67;;;18.15;;
51438;SDS011;38816;51.142;-0.974;2023-09-19T05:37:21;19.50;;;17.42;;
51438;SDS011;38816;51.142;-0.974;2023-09-19T05:39:46;21.95;;;19.88;;
51438;SDS011;38816;51.142;-0.974;2023-09-19T05:42:12;18.63;;;16.80;;
51438;SDS011;38816;51.142;-0.974;2023-09-19T05:44:38;20.17;;;17.58;;
51438;SDS011;38816;51.142;-0.974;2023-09-19T05:47:04;18.77;;;16.98;;
51438;SDS011;38816;51.142;-0.974;2023-09-19T05:49:29;22.88;;;20.27;;
51438;SDS011;38816;51.142;-0.974;2023-09-19T05:51:55;18.98;;;17.30;;
51438;SDS011;38816;51.142;-0.974;2023-09-19T05:54:21;20.05;;;18.27;;
51438;SDS011;38816;51.142;-0.974;2023-09-19T05:56:47;19.45;;;17.60;;
51438;SDS011;38816;51.142;-0.974;2023-09-19T05:59:13;19.85;;;17.95;;
51438;SDS011;38816;51.142;-0.974;2023-09-19T06:01:41;20.35;;;18.27;;
51438;SDS011;38816;51.142;-0.974;2023-09-19T06:04:07;19.42;;;17.90;;
51438;SDS011;38816;51.142;-0.974;2023-09-19T06:06:33;20.17;;;18.08;;
51438;SDS011;38816;51.142;-0.974;2023-09-19T06:09:01;17.38;;;15.65;;
51438;SDS011;38816;51.142;-0.974;2023-09-19T06:11:27;19.55;;;17.98;;
51438;SDS011;38816;51.142;-0.974;2023-09-19T06:13:54;20.67;;;16.83;;
51438;SDS011;38816;51.142;-0.974;2023-09-19T06:16:19;20.48;;;18.67;;
51438;SDS011;38816;51.142;-0.974;2023-09-19T06:18:45;20.55;;;18.52;;
51438;SDS011;38816;51.142;-0.974;2023-09-19T06:21:10;19.90;;;17.67;;
51438;SDS011;38816;51.142;-0.974;2023-09-19T06:23:36;18.98;;;17.33;;
51438;SDS011;38816;51.142;-0.974;2023-09-19T06:26:01;18.42;;;16.38;;
51438;SDS011;38816;51.142;-0.974;2023-09-19T06:28:27;24.10;;;17.35;;
51438;SDS011;38816;51.142;-0.974;2023-09-19T06:30:53;19.83;;;18.05;;
51438;SDS011;38816;51.142;-0.974;2023-09-19T06:33:20;16.88;;;15.43;;
51438;SDS011;38816;51.142;-0.974;2023-09-19T06:35:46;17.85;;;15.82;;
51438;SDS011;38816;51.142;-0.974;2023-09-19T06:38:13;22.65;;;18.48;;
51438;SDS011;38816;51.142;-0.974;2023-09-19T06:40:40;17.65;;;16.08;;
51438;SDS011;38816;51.142;-0.974;2023-09-19T06:43:09;20.10;;;18.17;;
51438;SDS011;38816;51.142;-0.974;2023-09-19T06:45:35;18.15;;;16.55;;
51438;SDS011;38816;51.142;-0.974;2023-09-19T06:48:01;19.45;;;17.10;;
51438;SDS011;38816;51.142;-0.974;2023-09-19T06:50:28;20.58;;;18.48;;
51438;SDS011;38816;51.142;-0.974;2023-09-19T06:52:56;21.30;;;16.63;;
51438;SDS011;38816;51.142;-0.974;2023-09-19T06:55:24;19.48;;;17.38;;
51438;SDS011;38816;51.142;-0.974;2023-09-19T06:57:53;19.83;;;17.73;;
51438;SDS011;38816;51.142;-0.974;2023-09-19T07:00:20;21.20;;;18.98;;
51438;SDS011;38816;51.142;-0.974;2023-09-19T07:03:03;24.48;;;17.80;;
51438;SDS011;38816;51.142;-0.974;2023-09-19T07:05:36;21.95;;;18.10;;
51438;SDS011;38816;51.142;-0.974;2023-09-19T07:08:04;19.58;;;17.60;;
51438;SDS011;38816;51.142;-0.974;2023-09-19T07:10:31;21.40;;;19.10;;
51438;SDS011;38816;51.142;-0.974;2023-09-19T07:13:01;21.73;;;17.70;;
51438;SDS011;38816;51.142;-0.974;2023-09-19T07:15:35;22.00;;;19.85;;
51438;SDS011;38816;51.142;-0.974;2023-09-19T07:18:04;24.02;;;18.98;;
51438;SDS011;38816;51.142;-0.974;2023-09-19T07:20:31;24.00;;;20.52;;
51438;SDS011;38816;51.142;-0.974;2023-09-19T07:23:00;20.35;;;18.17;;
51438;SDS011;38816;51.142;-0.974;2023-09-19T07:25:29;18.90;;;17.00;;
51438;SDS011;38816;51.142;-0.974;2023-09-19T07:27:56;23.15;;;20.92;;
51438;SDS011;38816;51.142;-0.974;2023-09-19T07:30:25;21.73;;;19.55;;
51438;SDS011;38816;51.142;-0.974;2023-09-19T07:32:52;23.55;;;21.48;;
51438;SDS011;38816;51.142;-0.974;2023-09-19T07:35:18;29.48;;;20.33;;
51438;SDS011;38816;51.142;-0.974;2023-09-19T07:37:45;22.48;;;19.73;;
51438;SDS011;38816;51.142;-0.974;2023-09-19T07:40:15;27.65;;;23.80;;
51438;SDS011;38816;51.142;-0.974;2023-09-19T07:42:41;27.77;;;21.88;;
51438;SDS011;38816;51.142;-0.974;2023-09-19T07:45:07;25.65;;;23.05;;
51438;SDS011;38816;51.142;-0.974;2023-09-19T07:47:33;23.38;;;21.08;;
51438;SDS011;38816;51.142;-0.974;2023-09-19T07:50:01;26.42;;;23.63;;
51438;SDS011;38816;51.142;-0.974;2023-09-19T07:52:28;27.17;;;24.33;;
51438;SDS011;38816;51.142;-0.974;2023-09-19T07:54:54;28.63;;;25.55;;
51438;SDS011;38816;51.142;-0.974;2023-09-19T07:57:19;24.58;;;20.88;;
51438;SDS011;38816;51.142;-0.974;2023-09-19T07:59:45;27.95;;;25.15;;
51438;SDS011;38816;51.142;-0.974;2023-09-19T08:02:11;28.05;;;24.98;;
51438;SDS011;38816;51.142;-0.974;2023-09-19T08:04:47;26.88;;;24.23;;
51438;SDS011;38816;51.142;-0.974;2023-09-19T08:07:14;28.38;;;24.60;;
51438;SDS011;38816;51.142;-0.974;2023-09-19T08:09:39;31.38;;;22.85;;
51438;SDS011;38816;51.142;-0.974;2023-09-19T08:12:06;32.67;;;29.33;;
51438;SDS011;38816;51.142;-0.974;2023-09-19T08:14:35;28.75;;;25.38;;
51438;SDS011;38816;51.142;-0.974;2023-09-19T08:17:01;32.50;;;25.67;;
51438;SDS011;38816;51.142;-0.974;2023-09-19T08:19:27;34.05;;;24.13;;
51438;SDS011;38816;51.142;-0.974;2023-09-19T08:21:56;33.95;;;28.15;;
51438;SDS011;38816;51.142;-0.974;2023-09-19T08:24:27;34.33;;;26.42;;
51438;SDS011;38816;51.142;-0.974;2023-09-19T08:26:53;33.58;;;30.25;;
51438;SDS011;38816;51.142;-0.974;2023-09-19T08:29:20;33.78;;;27.60;;
51438;SDS011;38816;51.142;-0.974;2023-09-19T08:31:45;34.22;;;29.90;;
51438;SDS011;38816;51.142;-0.974;2023-09-19T08:34:14;35.28;;;29.02;;
51438;SDS011;38816;51.142;-0.974;2023-09-19T08:36:40;31.88;;;28.27;;
51438;SDS011;38816;51.142;-0.974;2023-09-19T08:39:10;32.47;;;27.17;;
51438;SDS011;38816;51.142;-0.974;2023-09-19T08:41:36;36.63;;;30.08;;
51438;SDS011;38816;51.142;-0.974;2023-09-19T08:44:01;31.20;;;27.38;;
51438;SDS011;38816;51.142;-0.974;2023-09-19T08:46:27;29.23;;;26.65;;
51438;SDS011;38816;51.142;-0.974;2023-09-19T08:49:02;29.10;;;26.25;;
51438;SDS011;38816;51.142;-0.974;2023-09-19T08:51:42;34.42;;;27.90;;
51438;SDS011;38816;51.142;-0.974;2023-09-19T08:54:12;37.78;;;32.25;;
51438;SDS011;38816;51.142;-0.974;2023-09-19T08:56:47;30.65;;;27.50;;
51438;SDS011;38816;51.142;-0.974;2023-09-19T08:59:14;34.88;;;29.35;;
51438;SDS011;38816;51.142;-0.974;2023-09-19T09:01:40;35.95;;;32.70;;
51438;SDS011;38816;51.142;-0.974;2023-09-19T09:04:10;35.35;;;31.80;;
51438;SDS011;38816;51.142;-0.974;2023-09-19T09:06:38;35.90;;;32.17;;
51438;SDS011;38816;51.142;-0.974;2023-09-19T09:09:05;33.80;;;29.90;;
51438;SDS011;38816;51.142;-0.974;2023-09-19T09:11:34;37.35;;;31.38;;
51438;SDS011;38816;51.142;-0.974;2023-09-19T09:14:04;39.22;;;34.97;;
51438;SDS011;38816;51.142;-0.974;2023-09-19T09:16:32;42.47;;;38.58;;
51438;SDS011;38816;51.142;-0.974;2023-09-19T09:18:58;41.78;;;37.42;;
51438;SDS011;38816;51.142;-0.974;2023-09-19T09:21:25;41.55;;;38.20;;
51438;SDS011;38816;51.142;-0.974;2023-09-19T09:23:50;42.75;;;38.53;;
51438;SDS011;38816;51.142;-0.974;2023-09-19T09:26:17;44.25;;;39.95;;
51438;SDS011;38816;51.142;-0.974;2023-09-19T09:28:52;40.88;;;36.53;;
51438;SDS011;38816;51.142;-0.974;2023-09-19T09:31:22;47.15;;;42.75;;
51438;SDS011;38816;51.142;-0.974;2023-09-19T09:33:53;43.03;;;38.97;;
51438;SDS011;38816;51.142;-0.974;2023-09-19T09:36:32;49.15;;;44.40;;
51438;SDS011;38816;51.142;-0.974;2023-09-19T09:38:59;48.25;;;43.92;;
51438;SDS011;38816;51.142;-0.974;2023-09-19T09:41:40;42.00;;;37.97;;
51438;SDS011;38816;51.142;-0.974;2023-09-19T09:44:12;45.55;;;41.15;;
51438;SDS011;38816;51.142;-0.974;2023-09-19T09:46:42;48.85;;;43.92;;
51438;SDS011;38816;51.142;-0.974;2023-09-19T09:49:15;39.72;;;35.78;;
51438;SDS011;38816;51.142;-0.974;2023-09-19T09:52:02;44.95;;;40.33;;
51438;SDS011;38816;51.142;-0.974;2023-09-19T09:54:41;45.55;;;41.20;;
51438;SDS011;38816;51.142;-0.974;2023-09-19T09:57:24;45.35;;;40.72;;
51438;SDS011;38816;51.142;-0.974;2023-09-19T09:59:54;39.95;;;36.70;;
51438;SDS011;38816;51.142;-0.974;2023-09-19T10:04:54;36.40;;;32.53;;
51438;SDS011;38816;51.142;-0.974;2023-09-19T10:07:30;41.03;;;37.30;;
51438;SDS011;38816;51.142;-0.974;2023-09-19T10:10:14;39.92;;;36.40;;
51438;SDS011;38816;51.142;-0.974;2023-09-19T10:12:54;36.78;;;33.38;;
51438;SDS011;38816;51.142;-0.974;2023-09-19T10:15:27;39.60;;;35.83;;
51438;SDS011;38816;51.142;-0.974;2023-09-19T10:17:57;43.15;;;39.22;;
51438;SDS011;38816;51.142;-0.974;2023-09-19T10:20:29;43.47;;;39.75;;
51438;SDS011;38816;51.142;-0.974;2023-09-19T10:23:00;43.80;;;39.53;;
51438;SDS011;38816;51.142;-0.974;2023-09-19T10:25:34;40.97;;;37.22;;
51438;SDS011;38816;51.142;-0.974;2023-09-19T10:28:02;44.17;;;40.08;;
51438;SDS011;38816;51.142;-0.974;2023-09-19T10:30:31;46.22;;;42.03;;
51438;SDS011;38816;51.142;-0.974;2023-09-19T10:33:02;49.35;;;44.58;;
51438;SDS011;38816;51.142;-0.974;2023-09-19T10:35:29;51.75;;;47.10;;
51438;SDS011;38816;51.142;-0.974;2023-09-19T10:40:22;44.80;;;41.00;;
51438;SDS011;38816;51.142;-0.974;2023-09-19T10:42:58;48.80;;;44.65;;
51438;SDS011;38816;51.142;-0.974;2023-09-19T10:45:28;55.40;;;50.20;;
51438;SDS011;38816;51.142;-0.974;2023-09-19T10:47:56;46.50;;;42.58;;
51438;SDS011;38816;51.142;-0.974;2023-09-19T10:50:22;53.55;;;49.03;;
51438;SDS011;38816;51.142;-0.974;2023-09-19T10:52:49;44.83;;;40.53;;
51438;SDS011;38816;51.142;-0.974;2023-09-19T10:55:26;41.72;;;37.83;;
51438;SDS011;38816;51.142;-0.974;2023-09-19T10:57:55;37.72;;;33.92;;
51438;SDS011;38816;51.142;-0.974;2023-09-19T11:00:22;38.90;;;35.42;;
51438;SDS011;38816;51.142;-0.974;2023-09-19T11:05:36;36.53;;;32.92;;
51438;SDS011;38816;51.142;-0.974;2023-09-19T11:08:06;32.83;;;29.88;;
51438;SDS011;38816;51.142;-0.974;2023-09-19T11:13:23;30.65;;;26.75;;
51438;SDS011;38816;51.142;-0.974;2023-09-19T11:27:09;27.92;;;25.40;;
51438;SDS011;38816;51.142;-0.974;2023-09-19T11:29:38;26.95;;;24.10;;
51438;SDS011;38816;51.142;-0.974;2023-09-19T11:32:05;22.52;;;19.40;;
51438;SDS011;38816;51.142;-0.974;2023-09-19T11:40:10;27.60;;;24.80;;
51438;SDS011;38816;51.142;-0.974;2023-09-19T11:42:43;26.92;;;24.05;;
51438;SDS011;38816;51.142;-0.974;2023-09-19T11:48:11;26.88;;;24.15;;
51438;SDS011;38816;51.142;-0.974;2023-09-19T11:50:41;28.30;;;25.45;;
51438;SDS011;38816;51.142;-0.974;2023-09-19T11:53:10;26.50;;;23.90;;
51438;SDS011;38816;51.142;-0.974;2023-09-19T11:55:37;23.45;;;21.23;;
51438;SDS011;38816;51.142;-0.974;2023-09-19T11:58:04;24.45;;;22.00;;
51438;SDS011;38816;51.142;-0.974;2023-09-19T12:00:32;22.33;;;20.10;;
51438;SDS011;38816;51.142;-0.974;2023-09-19T12:03:01;28.65;;;21.83;;
51438;SDS011;38816;51.142;-0.974;2023-09-19T12:05:35;20.50;;;18.45;;
51438;SDS011;38816;51.142;-0.974;2023-09-19T12:08:02;29.92;;;27.05;;
51438;SDS011;38816;51.142;-0.974;2023-09-19T12:10:46;22.58;;;20.08;;
51438;SDS011;38816;51.142;-0.974;2023-09-19T12:13:17;23.60;;;20.65;;
51438;SDS011;38816;51.142;-0.974;2023-09-19T12:15:43;30.55;;;22.50;;
51438;SDS011;38816;51.142;-0.974;2023-09-19T12:18:10;22.17;;;18.35;;
51438;SDS011;38816;51.142;-0.974;2023-09-19T12:20:53;22.33;;;20.10;;
51438;SDS011;38816;51.142;-0.974;2023-09-19T12:23:19;17.73;;;16.02;;
51438;SDS011;38816;51.142;-0.974;2023-09-19T12:25:46;18.13;;;16.10;;
51438;SDS011;38816;51.142;-0.974;2023-09-19T12:28:13;22.52;;;19.17;;
51438;SDS011;38816;51.142;-0.974;2023-09-19T12:30:39;22.05;;;17.83;;
51438;SDS011;38816;51.142;-0.974;2023-09-19T12:33:19;20.33;;;17.88;;
51438;SDS011;38816;51.142;-0.974;2023-09-19T12:35:46;18.30;;;16.13;;
51438;SDS011;38816;51.142;-0.974;2023-09-19T12:38:22;18.85;;;16.90;;
51438;SDS011;38816;51.142;-0.974;2023-09-19T12:40:50;18.38;;;16.67;;
51438;SDS011;38816;51.142;-0.974;2023-09-19T12:43:17;19.58;;;16.42;;
51438;SDS011;38816;51.142;-0.974;2023-09-19T12:45:44;18.35;;;15.73;;
51438;SDS011;38816;51.142;-0.974;2023-09-19T12:48:23;16.52;;;14.98;;
51438;SDS011;38816;51.142;-0.974;2023-09-19T12:51:05;21.02;;;14.02;;
51438;SDS011;38816;51.142;-0.974;2023-09-19T12:53:38;19.02;;;17.17;;
51438;SDS011;38816;51.142;-0.974;2023-09-19T12:56:07;19.50;;;16.73;;
51438;SDS011;38816;51.142;-0.974;2023-09-19T12:58:37;16.15;;;14.38;;
51438;SDS011;38816;51.142;-0.974;2023-09-19T13:01:14;18.70;;;14.88;;
51438;SDS011;38816;51.142;-0.974;2023-09-19T13:03:41;17.63;;;15.93;;
51438;SDS011;38816;51.142;-0.974;2023-09-19T13:06:07;18.75;;;16.83;;
51438;SDS011;38816;51.142;-0.974;2023-09-19T13:08:35;17.35;;;15.45;;
51438;SDS011;38816;51.142;-0.974;2023-09-19T13:11:05;23.25;;;16.05;;
51438;SDS011;38816;51.142;-0.974;2023-09-19T13:13:45;22.02;;;19.77;;
51438;SDS011;38816;51.142;-0.974;2023-09-19T13:16:20;24.83;;;21.42;;
51438;SDS011;38816;51.142;-0.974;2023-09-19T13:21:31;18.73;;;16.95;;
51438;SDS011;38816;51.142;-0.974;2023-09-19T13:24:23;20.83;;;17.13;;
51438;SDS011;38816;51.142;-0.974;2023-09-19T13:26:54;19.80;;;17.25;;
51438;SDS011;38816;51.142;-0.974;2023-09-19T13:29:21;18.77;;;16.77;;
51438;SDS011;38816;51.142;-0.974;2023-09-19T13:31:49;18.27;;;16.42;;
51438;SDS011;38816;51.142;-0.974;2023-09-19T13:34:18;21.88;;;16.05;;
51438;SDS011;38816;51.142;-0.974;2023-09-19T13:36:44;17.40;;;15.63;;
51438;SDS011;38816;51.142;-0.974;2023-09-19T13:39:09;19.45;;;14.25;;
51438;SDS011;38816;51.142;-0.974;2023-09-19T13:41:35;19.55;;;16.02;;
51438;SDS011;38816;51.142;-0.974;2023-09-19T13:44:04;16.58;;;14.57;;
51438;SDS011;38816;51.142;-0.974;2023-09-19T13:46:30;14.70;;;13.38;;
51438;SDS011;38816;51.142;-0.974;2023-09-19T13:48:58;14.57;;;13.25;;
51438;SDS011;38816;51.142;-0.974;2023-09-19T13:51:25;16.42;;;14.98;;
51438;SDS011;38816;51.142;-0.974;2023-09-19T13:53:51;15.55;;;14.10;;
51438;SDS011;38816;51.142;-0.974;2023-09-19T13:56:17;23.45;;;21.20;;
51438;SDS011;38816;51.142;-0.974;2023-09-19T13:58:42;16.70;;;12.52;;
51438;SDS011;38816;51.142;-0.974;2023-09-19T14:01:10;17.25;;;15.43;;
51438;SDS011;38816;51.142;-0.974;2023-09-19T14:03:38;13.88;;;11.75;;
51438;SDS011;38816;51.142;-0.974;2023-09-19T14:06:12;17.98;;;15.13;;
51438;SDS011;38816;51.142;-0.974;2023-09-19T14:08:38;17.05;;;13.95;;
51438;SDS011;38816;51.142;-0.974;2023-09-19T14:11:09;14.50;;;13.13;;
51438;SDS011;38816;51.142;-0.974;2023-09-19T14:13:35;17.85;;;16.13;;
51438;SDS011;38816;51.142;-0.974;2023-09-19T14:16:07;14.82;;;13.32;;
51438;SDS011;38816;51.142;-0.974;2023-09-19T14:18:35;16.60;;;12.18;;
51438;SDS011;38816;51.142;-0.974;2023-09-19T14:21:04;15.32;;;13.95;;
51438;SDS011;38816;51.142;-0.974;2023-09-19T14:23:37;16.23;;;14.60;;
51438;SDS011;38816;51.142;-0.974;2023-09-19T14:26:07;19.90;;;12.90;;
51438;SDS011;38816;51.142;-0.974;2023-09-19T14:28:34;14.02;;;12.55;;
51438;SDS011;38816;51.142;-0.974;2023-09-19T14:31:03;15.73;;;14.18;;
51438;SDS011;38816;51.142;-0.974;2023-09-19T14:33:32;14.13;;;12.63;;
51438;SDS011;38816;51.142;-0.974;2023-09-19T14:35:57;16.75;;;15.05;;
51438;SDS011;38816;51.142;-0.974;2023-09-19T14:38:22;16.85;;;14.48;;
51438;SDS011;38816;51.142;-0.974;2023-09-19T14:40:48;20.35;;;14.82;;
51438;SDS011;38816;51.142;-0.974;2023-09-19T14:43:15;16.85;;;14.07;;
51438;SDS011;38816;51.142;-0.974;2023-09-19T14:45:40;16.40;;;14.85;;
51438;SDS011;38816;51.142;-0.974;2023-09-19T14:48:06;18.75;;;15.20;;
51438;SDS011;38816;51.142;-0.974;2023-09-19T14:50:32;15.60;;;13.80;;
51438;SDS011;38816;51.142;-0.974;2023-09-19T14:52:58;19.52;;;13.50;;
51438;SDS011;38816;51.142;-0.974;2023-09-19T14:55:26;17.15;;;12.85;;
51438;SDS011;38816;51.142;-0.974;2023-09-19T14:57:54;17.20;;;14.25;;
51438;SDS011;38816;51.142;-0.974;2023-09-19T15:00:22;14.93;;;13.52;;
51438;SDS011;38816;51.142;-0.974;2023-09-19T15:02:48;23.30;;;14.88;;
51438;SDS011;38816;51.142;-0.974;2023-09-19T15:05:15;20.58;;;13.68;;